Time;durP1;ratioP1;P1;durP2;ratioP2;P2;SDS_P1;SDS_P2;PMS_P1;PMS_P2;Temp;Humidity;BMP_temperature;BMP_pressure;BME280_temperature;BME280_humidity;BME280_pressure;Samples;Min_cycle;Max_cycle;Signal;HPM_P1;HPM_P2
2022/02/13 00:01:11;;;;;;;0.40;0.40;;;;;;;2.44;75.69;101027.63;5074347;28;20175;-72
2022/02/13 00:03:36;;;;;;;0.20;0.20;;;;;;;2.42;75.50;101025.16;5073826;28;20592;-70
2022/02/13 00:06:02;;;;;;;0.90;0.30;;;;;;;2.42;75.37;101029.75;5073897;28;20185;-70
2022/02/13 00:08:28;;;;;;;0.27;0.27;;;;;;;2.38;75.63;101026.72;5073366;28;20194;-71
2022/02/13 00:10:53;;;;;;;0.40;0.40;;;;;;;2.34;75.85;101017.50;5073385;28;20190;-70
2022/02/13 00:13:18;;;;;;;1.33;1.23;;;;;;;2.35;75.62;101013.72;5073808;28;20224;-70
2022/02/13 00:15:44;;;;;;;0.13;0.13;;;;;;;2.35;75.87;101021.81;5073072;28;20250;-70
2022/02/13 00:18:09;;;;;;;1.40;0.67;;;;;;;2.35;75.65;101011.03;5073393;28;20206;-70
2022/02/13 00:20:34;;;;;;;1.00;1.00;;;;;;;2.32;75.77;101009.66;5073232;28;20175;-70
2022/02/13 00:23:00;;;;;;;0.47;0.47;;;;;;;2.34;75.79;100998.63;5073151;28;20175;-71
2022/02/13 00:25:26;;;;;;;0.43;0.43;;;;;;;2.35;75.62;101005.63;5073179;28;20223;-70
2022/02/13 00:27:52;;;;;;;0.63;0.50;;;;;;;2.39;75.39;101012.16;5073044;28;20541;-70
2022/02/13 00:30:17;;;;;;;0.30;0.30;;;;;;;2.45;75.12;101004.97;5072832;28;20179;-71
2022/02/13 00:32:44;;;;;;;1.00;1.00;;;;;;;2.46;74.96;101001.22;5073186;28;20181;-70
2022/02/13 00:35:13;;;;;;;0.23;0.23;;;;;;;2.48;74.57;100982.94;5072532;28;20227;-70
2022/02/13 00:37:39;;;;;;;0.73;0.73;;;;;;;2.48;74.65;100985.63;5072857;28;20199;-70
2022/02/13 00:40:06;;;;;;;1.80;0.50;;;;;;;2.43;74.85;100974.75;5072884;28;20428;-70
2022/02/13 00:42:31;;;;;;;0.37;0.37;;;;;;;2.52;74.40;100973.28;5072852;28;20273;-70
2022/02/13 00:44:57;;;;;;;0.60;0.60;;;;;;;2.57;74.24;100971.47;5072681;28;20956;-71
2022/02/13 00:47:22;;;;;;;0.40;0.40;;;;;;;2.57;74.09;100962.56;5072995;28;20182;-71
2022/02/13 00:49:47;;;;;;;0.40;0.37;;;;;;;2.56;74.01;100967.16;5072740;28;20178;-70
2022/02/13 00:52:13;;;;;;;0.30;0.30;;;;;;;2.59;73.83;100979.31;5072670;28;20191;-70
2022/02/13 00:54:39;;;;;;;1.70;0.63;;;;;;;2.59;73.46;100974.75;5072334;28;20733;-70
2022/02/13 00:57:04;;;;;;;0.83;0.83;;;;;;;2.64;73.47;100966.75;5072308;28;20183;-72
2022/02/13 00:59:30;;;;;;;2.33;0.77;;;;;;;2.63;73.24;100956.22;5072188;28;20229;-70
2022/02/13 01:01:55;;;;;;;0.83;0.83;;;;;;;2.59;73.30;100952.34;5072424;28;20251;-71
2022/02/13 01:04:21;;;;;;;0.47;0.30;;;;;;;2.51;73.77;100947.38;5072407;28;20182;-70
2022/02/13 01:06:46;;;;;;;0.57;0.57;;;;;;;2.62;73.40;100954.59;5072456;28;20630;-70
2022/02/13 01:09:12;;;;;;;0.63;0.63;;;;;;;2.61;73.21;100952.94;5072870;28;20178;-70
2022/02/13 01:11:37;;;;;;;0.47;0.47;;;;;;;2.56;73.24;100942.06;5072283;28;20736;-70
2022/02/13 01:14:03;;;;;;;7.47;1.87;;;;;;;2.53;73.43;100932.59;5072231;28;20642;-72
2022/02/13 01:16:29;;;;;;;2.27;0.63;;;;;;;2.57;73.17;100924.81;5072037;28;20178;-72
2022/02/13 01:18:55;;;;;;;0.10;0.10;;;;;;;2.50;73.45;100918.78;5071948;28;20216;-70
2022/02/13 01:21:21;;;;;;;1.00;0.60;;;;;;;2.51;73.28;100923.13;5072009;28;20179;-70
2022/02/13 01:23:46;;;;;;;0.90;0.50;;;;;;;2.53;73.31;100919.09;5071733;28;20175;-70
2022/02/13 01:26:12;;;;;;;1.67;1.57;;;;;;;2.53;73.06;100915.59;5071625;28;20209;-71
2022/02/13 01:28:38;;;;;;;1.97;1.30;;;;;;;2.49;73.28;100927.94;5071887;28;20170;-70
2022/02/13 01:31:06;;;;;;;0.83;0.83;;;;;;;2.44;73.51;100922.44;5071926;28;20178;-70
2022/02/13 01:33:33;;;;;;;0.80;0.80;;;;;;;2.43;73.48;100920.81;5071837;28;20179;-71
2022/02/13 01:35:58;;;;;;;1.03;0.83;;;;;;;2.43;73.54;100920.81;5071594;28;20689;-70
2022/02/13 01:38:24;;;;;;;0.40;0.40;;;;;;;2.44;73.05;100911.66;5070405;28;20210;-70
2022/02/13 01:40:50;;;;;;;0.73;0.53;;;;;;;2.42;73.32;100908.41;5070620;28;20175;-70
2022/02/13 01:43:15;;;;;;;0.47;0.47;;;;;;;2.36;73.42;100908.34;5071828;28;20262;-70
2022/02/13 01:45:41;;;;;;;0.10;0.10;;;;;;;2.32;73.42;100912.59;5071293;28;20198;-70
2022/02/13 01:48:08;;;;;;;8.57;0.80;;;;;;;2.35;73.28;100895.91;5071554;28;20270;-70
2022/02/13 01:50:35;;;;;;;1.50;1.20;;;;;;;2.36;73.43;100897.56;5071519;28;20545;-70
2022/02/13 01:53:00;;;;;;;0.30;0.20;;;;;;;2.34;73.28;100874.59;5071438;28;20178;-71
2022/02/13 01:55:26;;;;;;;1.77;1.50;;;;;;;2.32;73.01;100880.25;5071264;28;20858;-70
2022/02/13 01:57:51;;;;;;;2.83;1.83;;;;;;;2.21;73.42;100878.44;5071569;28;20690;-70
2022/02/13 02:00:17;;;;;;;1.33;1.10;;;;;;;2.21;73.38;100874.94;5071322;28;20175;-70
2022/02/13 02:02:42;;;;;;;1.13;0.73;;;;;;;2.17;73.73;100866.53;5071319;28;20638;-70
2022/02/13 02:05:08;;;;;;;3.27;1.30;;;;;;;2.14;73.70;100869.69;5071096;28;20185;-70
2022/02/13 02:07:33;;;;;;;0.17;0.17;;;;;;;2.16;73.61;100870.25;5070298;28;20698;-70
2022/02/13 02:09:59;;;;;;;2.20;1.63;;;;;;;2.18;73.54;100865.47;5071156;28;20179;-70
2022/02/13 02:12:25;;;;;;;0.07;0.07;;;;;;;2.22;73.15;100865.78;5070958;28;20176;-70
2022/02/13 02:14:50;;;;;;;0.60;0.60;;;;;;;2.26;72.69;100865.03;5070543;28;20266;-71
2022/02/13 02:17:16;;;;;;;1.10;0.80;;;;;;;2.25;72.69;100863.41;5070741;28;20250;-71
2022/02/13 02:19:41;;;;;;;1.70;1.60;;;;;;;2.23;72.88;100856.63;5071007;28;20285;-71
2022/02/13 02:22:08;;;;;;;1.87;1.53;;;;;;;2.19;72.88;100872.47;5071341;28;20197;-71
2022/02/13 02:24:34;;;;;;;5.13;1.77;;;;;;;2.21;72.90;100856.06;5069875;28;20182;-71
2022/02/13 02:27:00;;;;;;;0.40;0.40;;;;;;;2.21;72.74;100867.66;5070773;28;20604;-70
2022/02/13 02:29:25;;;;;;;1.30;1.17;;;;;;;2.32;71.86;100858.66;5070803;28;20178;-72
2022/02/13 02:31:51;;;;;;;1.17;0.80;;;;;;;2.41;71.28;100856.34;5070905;28;20474;-73
2022/02/13 02:34:16;;;;;;;0.83;0.83;;;;;;;2.29;71.68;100828.66;5070818;28;20660;-72
2022/02/13 02:36:42;;;;;;;1.33;1.23;;;;;;;2.32;71.71;100829.00;5070699;28;20223;-70
2022/02/13 02:39:07;;;;;;;1.07;0.70;;;;;;;2.36;71.16;100826.63;5070718;28;20234;-71
2022/02/13 02:41:33;;;;;;;2.00;1.37;;;;;;;2.37;71.10;100823.69;5071095;28;20182;-72
2022/02/13 02:43:59;;;;;;;2.57;0.47;;;;;;;2.39;70.64;100826.13;5070784;28;20252;-70
2022/02/13 02:46:24;;;;;;;2.97;2.80;;;;;;;2.43;70.36;100823.75;5070493;28;20642;-70
2022/02/13 02:48:50;;;;;;;1.50;1.40;;;;;;;2.43;70.30;100807.56;5070713;28;20180;-70
2022/02/13 02:51:15;;;;;;;9.30;1.87;;;;;;;2.44;70.67;100809.19;5070652;28;20638;-70
2022/02/13 02:53:42;;;;;;;1.23;1.13;;;;;;;2.39;70.40;100799.97;5070730;28;20174;-72
2022/02/13 02:56:08;;;;;;;0.53;0.53;;;;;;;2.43;69.90;100789.50;5070502;28;20202;-71
2022/02/13 02:58:33;;;;;;;1.40;1.40;;;;;;;2.45;69.72;100790.06;5070509;28;20240;-70
2022/02/13 03:00:59;;;;;;;0.80;0.80;;;;;;;2.50;69.40;100786.66;5070355;28;20593;-72
2022/02/13 03:03:24;;;;;;;3.27;0.93;;;;;;;2.51;69.23;100780.19;5070521;28;20619;-70
2022/02/13 03:05:50;;;;;;;1.50;1.50;;;;;;;2.55;68.91;100800.19;5070357;28;20171;-70
2022/02/13 03:08:17;;;;;;;5.10;1.43;;;;;;;2.50;69.46;100800.94;5070574;28;20557;-70
2022/02/13 03:10:43;;;;;;;0.80;0.80;;;;;;;2.46;69.53;100790.88;5070570;28;20179;-70
2022/02/13 03:13:10;;;;;;;0.60;0.60;;;;;;;2.39;69.87;100786.50;5070561;28;20232;-70
2022/02/13 03:15:36;;;;;;;1.33;1.30;;;;;;;2.39;70.09;100791.09;5070290;28;20174;-70
2022/02/13 03:18:02;;;;;;;2.20;1.10;;;;;;;2.39;69.78;100799.16;5070500;28;20523;-70
2022/02/13 03:20:28;;;;;;;1.23;1.13;;;;;;;2.37;69.98;100795.91;5074417;28;20331;-70
2022/02/13 03:22:54;;;;;;;2.83;2.67;;;;;;;2.42;69.68;100798.66;5074377;28;20687;-70
2022/02/13 03:25:19;;;;;;;2.00;1.90;;;;;;;2.40;69.99;100784.63;5073768;28;20271;-71
2022/02/13 03:27:45;;;;;;;0.73;0.57;;;;;;;2.35;69.97;100784.56;5074408;28;20265;-70
2022/02/13 03:30:10;;;;;;;1.73;1.63;;;;;;;2.34;69.52;100775.66;5073780;28;20175;-70
2022/02/13 03:32:36;;;;;;;0.93;0.83;;;;;;;2.32;70.04;100785.06;5070509;28;20335;-71
2022/02/13 03:35:01;;;;;;;1.47;1.27;;;;;;;2.38;69.66;100789.47;5066495;28;20194;-70
2022/02/13 03:37:27;;;;;;;1.80;1.57;;;;;;;2.37;69.75;100790.53;5074514;28;20182;-71
2022/02/13 03:39:53;;;;;;;1.97;1.87;;;;;;;2.37;69.53;100780.56;5074282;28;20175;-70
2022/02/13 03:42:18;;;;;;;1.30;1.00;;;;;;;2.39;69.16;100791.09;5074326;28;20579;-71
2022/02/13 03:44:44;;;;;;;5.10;1.80;;;;;;;2.39;69.15;100783.00;5074133;28;20425;-71
2022/02/13 03:47:09;;;;;;;1.90;1.73;;;;;;;2.27;69.34;100756.13;5074246;28;20186;-71
2022/02/13 03:49:34;;;;;;;1.00;0.90;;;;;;;2.21;70.13;100759.84;5074094;28;20224;-71
2022/02/13 03:52:00;;;;;;;2.53;1.40;;;;;;;2.24;70.14;100751.25;5074051;28;20257;-70
2022/02/13 03:54:25;;;;;;;0.90;0.60;;;;;;;2.23;70.12;100749.63;5074064;28;20170;-70
2022/02/13 03:56:51;;;;;;;1.43;1.33;;;;;;;2.23;69.91;100746.13;5073874;28;20179;-70
2022/02/13 03:59:16;;;;;;;2.53;1.90;;;;;;;2.13;70.17;100732.47;5073723;28;20209;-70
2022/02/13 04:01:41;;;;;;;2.07;1.97;;;;;;;2.07;70.70;100728.91;5073840;28;20181;-70
2022/02/13 04:04:07;;;;;;;0.93;0.60;;;;;;;2.09;70.70;100726.78;5073937;28;20216;-70
2022/02/13 04:06:32;;;;;;;2.03;1.50;;;;;;;2.14;70.28;100718.75;5075216;28;20270;-70
2022/02/13 04:08:58;;;;;;;1.83;1.37;;;;;;;2.14;70.34;100718.75;5074310;28;20202;-70
2022/02/13 04:11:24;;;;;;;2.33;1.37;;;;;;;2.02;70.76;100709.97;5073569;28;20175;-70
2022/02/13 04:13:49;;;;;;;1.97;1.77;;;;;;;1.98;71.23;100703.44;5073304;28;20630;-70
2022/02/13 04:16:15;;;;;;;3.53;2.10;;;;;;;1.93;71.34;100695.31;5073375;28;20178;-71
2022/02/13 04:18:40;;;;;;;2.87;2.30;;;;;;;1.89;71.40;100707.66;5073715;28;20522;-71
2022/02/13 04:21:05;;;;;;;1.50;1.27;;;;;;;1.93;71.79;100708.78;5073987;28;20657;-70
2022/02/13 04:23:32;;;;;;;3.20;2.00;;;;;;;1.79;71.56;100701.03;5072010;28;20630;-71
2022/02/13 04:26:00;;;;;;;2.13;2.00;;;;;;;1.59;72.40;100699.91;5072935;28;20187;-71
2022/02/13 04:28:26;;;;;;;2.07;1.90;;;;;;;1.53;73.03;100704.41;5072857;28;20228;-71
2022/02/13 04:30:56;;;;;;;2.90;2.67;;;;;;;1.41;73.45;100696.41;5072315;28;20218;-70
2022/02/13 04:33:22;;;;;;;2.33;1.90;;;;;;;1.19;74.60;100688.25;5073187;28;20181;-71
2022/02/13 04:35:47;;;;;;;4.47;2.50;;;;;;;1.19;75.36;100684.75;5072896;28;20174;-71
2022/02/13 04:38:13;;;;;;;5.17;2.60;;;;;;;1.11;75.30;100680.56;5072974;28;20602;-70
2022/02/13 04:40:39;;;;;;;4.87;2.43;;;;;;;1.17;75.95;100681.47;5072885;28;20179;-71
2022/02/13 04:43:05;;;;;;;2.20;1.90;;;;;;;1.09;76.45;100674.59;5072760;28;20170;-70
2022/02/13 04:45:30;;;;;;;3.17;2.17;;;;;;;0.98;77.47;100671.97;5072547;28;20270;-71
2022/02/13 04:47:55;;;;;;;2.47;2.00;;;;;;;1.00;77.83;100675.25;5072655;28;20202;-72
2022/02/13 04:50:21;;;;;;;2.57;2.30;;;;;;;0.90;78.05;100662.44;5072685;28;20194;-71
2022/02/13 04:52:54;;;;;;;2.40;2.20;;;;;;;1.15;77.50;100656.66;5072482;28;20181;-72
2022/02/13 04:55:21;;;;;;;3.27;2.60;;;;;;;1.16;76.91;100655.63;5071946;28;20179;-72
2022/02/13 04:57:47;;;;;;;2.07;1.73;;;;;;;1.23;76.30;100647.38;5072144;28;20658;-71
2022/02/13 05:00:14;;;;;;;0.80;0.60;;;;;;;1.21;76.41;100650.31;5072002;28;20277;-71
2022/02/13 05:02:40;;;;;;;2.73;2.10;;;;;;;1.26;75.66;100653.09;5072079;28;20177;-71
2022/02/13 05:05:06;;;;;;;2.60;2.40;;;;;;;1.27;75.17;100652.03;5071730;28;20174;-71
2022/02/13 05:07:31;;;;;;;3.20;2.50;;;;;;;1.21;75.46;100639.56;5072383;28;20219;-71
2022/02/13 05:09:57;;;;;;;3.30;2.70;;;;;;;1.13;75.45;100640.78;5071891;28;20228;-71
2022/02/13 05:12:22;;;;;;;10.80;3.07;;;;;;;1.13;75.81;100613.03;5072069;28;20185;-70
2022/02/13 05:14:48;;;;;;;2.33;2.10;;;;;;;1.13;75.85;100626.50;5071608;28;20178;-71
2022/02/13 05:17:14;;;;;;;2.27;2.10;;;;;;;1.10;75.49;100630.50;5071785;28;20179;-71
2022/02/13 05:19:39;;;;;;;2.93;2.63;;;;;;;0.95;76.10;100624.88;5071629;28;20206;-71
2022/02/13 05:22:04;;;;;;;2.03;1.80;;;;;;;1.07;75.74;100628.31;5071716;28;20224;-71
2022/02/13 05:24:34;;;;;;;2.63;1.83;;;;;;;1.14;75.53;100639.69;5071474;28;20178;-70
2022/02/13 05:27:00;;;;;;;3.77;2.33;;;;;;;1.07;75.83;100633.69;5071334;28;20186;-71
2022/02/13 05:29:25;;;;;;;4.00;2.70;;;;;;;0.89;76.10;100637.44;5071340;28;20187;-70
2022/02/13 05:31:50;;;;;;;2.97;2.53;;;;;;;0.75;76.60;100627.22;5071505;28;20570;-71
2022/02/13 05:34:16;;;;;;;3.37;2.83;;;;;;;0.77;77.00;100627.78;5071906;28;20175;-71
2022/02/13 05:36:44;;;;;;;4.07;2.50;;;;;;;0.81;76.97;100618.16;5071038;28;20269;-70
2022/02/13 05:39:10;;;;;;;5.73;2.37;;;;;;;0.54;78.35;100620.63;5071362;28;20259;-70
2022/02/13 05:41:36;;;;;;;3.80;2.63;;;;;;;0.44;78.50;100605.16;5071083;28;20500;-71
2022/02/13 05:44:02;;;;;;;2.73;1.97;;;;;;;0.56;78.73;100619.34;5071211;28;20261;-71
2022/02/13 05:46:29;;;;;;;0.43;0.43;;;;;;;0.72;78.86;100619.63;5070967;28;20178;-71
2022/02/13 05:48:55;;;;;;;4.03;1.77;;;;;;;0.83;77.79;100624.94;5069770;28;20555;-71
2022/02/13 05:51:23;;;;;;;4.07;2.30;;;;;;;0.89;77.39;100615.09;5071030;28;20174;-71
2022/02/13 05:53:55;;;;;;;5.27;2.57;;;;;;;0.91;77.94;100612.16;5071091;28;20170;-71
2022/02/13 05:56:21;;;;;;;2.10;1.90;;;;;;;0.93;76.79;100608.16;5070735;28;20633;-71
2022/02/13 05:58:47;;;;;;;3.53;2.80;;;;;;;0.92;76.71;100600.34;5070732;28;20232;-71
2022/02/13 06:01:13;;;;;;;1.53;1.50;;;;;;;0.96;76.46;100596.09;5070863;28;20653;-70
2022/02/13 06:03:39;;;;;;;3.00;2.10;;;;;;;1.00;76.08;100597.22;5070768;28;20171;-71
2022/02/13 06:06:04;;;;;;;2.87;2.03;;;;;;;0.93;76.03;100591.22;5070527;28;20594;-71
2022/02/13 06:08:29;;;;;;;3.77;2.10;;;;;;;0.88;76.33;100584.69;5070712;28;20640;-70
2022/02/13 06:10:55;;;;;;;1.83;1.63;;;;;;;0.99;75.34;100584.84;5070856;28;20571;-70
2022/02/13 06:13:21;;;;;;;2.07;1.70;;;;;;;1.00;75.17;100589.16;5070802;28;20254;-70
2022/02/13 06:15:46;;;;;;;2.70;2.50;;;;;;;0.95;74.84;100583.72;5070469;28;20253;-71
2022/02/13 06:18:12;;;;;;;2.43;2.23;;;;;;;0.95;75.07;100581.84;5070476;28;20530;-71
2022/02/13 06:20:40;;;;;;;2.97;2.33;;;;;;;1.02;74.67;100585.19;5070560;28;20178;-71
2022/02/13 06:23:06;;;;;;;3.60;3.20;;;;;;;0.67;75.73;100582.72;5070579;28;20206;-71
2022/02/13 06:25:31;;;;;;;3.30;2.77;;;;;;;0.62;76.55;100588.00;5070167;28;20182;-71
2022/02/13 06:27:57;;;;;;;3.37;2.83;;;;;;;0.54;77.29;100586.50;5070504;28;20243;-71
2022/02/13 06:30:22;;;;;;;4.90;3.53;;;;;;;0.24;78.96;100581.38;5070265;28;20182;-71
2022/02/13 06:32:47;;;;;;;3.53;3.20;;;;;;;0.07;80.49;100574.34;5070472;28;20175;-71
2022/02/13 06:35:13;;;;;;;3.73;3.10;;;;;;;0.03;80.81;100576.69;5070181;28;20189;-71
2022/02/13 06:37:38;;;;;;;3.93;3.40;;;;;;;-0.04;81.74;100578.69;5070336;28;20182;-71
2022/02/13 06:40:04;;;;;;;4.73;3.10;;;;;;;0.00;81.33;100587.91;5070379;28;20202;-71
2022/02/13 06:42:30;;;;;;;4.17;3.67;;;;;;;0.23;81.03;100600.44;5070243;28;20639;-70
2022/02/13 06:44:55;;;;;;;3.43;3.13;;;;;;;0.22;80.83;100593.44;5069974;28;20204;-71
2022/02/13 06:47:20;;;;;;;3.23;2.93;;;;;;;-0.01;81.01;100587.06;5070194;28;20175;-71
2022/02/13 06:49:46;;;;;;;5.90;3.53;;;;;;;-0.15;82.04;100579.53;5070306;28;20182;-73
2022/02/13 06:52:11;;;;;;;3.77;3.17;;;;;;;-0.09;81.69;100586.66;5070224;28;20185;-71
2022/02/13 06:54:36;;;;;;;3.57;2.13;;;;;;;0.19;80.98;100601.97;5068474;28;20182;-71
2022/02/13 06:57:02;;;;;;;1.33;1.30;;;;;;;0.43;79.20;100611.56;5070003;28;20210;-71
2022/02/13 06:59:27;;;;;;;2.23;2.07;;;;;;;0.66;77.44;100617.91;5070047;28;20214;-71
2022/02/13 07:01:53;;;;;;;2.33;1.07;;;;;;;0.93;75.78;100631.56;5070280;28;20562;-71
2022/02/13 07:04:18;;;;;;;6.33;3.87;;;;;;;0.95;75.10;100632.13;5070341;28;20261;-72
2022/02/13 07:06:45;;;;;;;5.37;3.30;;;;;;;0.92;74.84;100636.13;5069905;28;20261;-72
2022/02/13 07:09:10;;;;;;;5.43;2.33;;;;;;;0.89;74.79;100642.81;5070020;28;20181;-71
2022/02/13 07:11:35;;;;;;;3.97;1.97;;;;;;;1.02;74.18;100641.69;5070128;28;20170;-71
2022/02/13 07:14:01;;;;;;;1.40;1.30;;;;;;;1.13;73.83;100645.34;5068631;28;20179;-72
2022/02/13 07:16:28;;;;;;;3.77;2.13;;;;;;;1.18;73.02;100645.44;5069819;28;20231;-71
2022/02/13 07:18:53;;;;;;;3.23;2.50;;;;;;;1.13;72.90;100635.38;5069901;28;20661;-71
2022/02/13 07:21:19;;;;;;;0.20;0.20;;;;;;;1.25;72.88;100634.50;5069997;28;20423;-71
2022/02/13 07:23:44;;;;;;;3.47;2.40;;;;;;;1.26;72.49;100641.50;5065497;28;20670;-73
2022/02/13 07:26:12;;;;;;;1.57;1.40;;;;;;;1.21;72.74;100641.44;5069951;28;20198;-73
2022/02/13 07:31:21;;;;;;;1.30;1.20;;;;;;;1.24;72.81;100633.69;5070283;28;20392;-71
2022/02/13 07:33:47;;;;;;;7.40;2.10;;;;;;;1.28;72.58;100632.13;5070391;28;20544;-71
2022/02/13 07:36:12;;;;;;;3.23;1.93;;;;;;;1.31;72.54;100633.53;5070174;28;20170;-72
2022/02/13 07:38:38;;;;;;;1.23;1.13;;;;;;;1.31;72.64;100625.47;5070119;28;20649;-71
2022/02/13 07:41:03;;;;;;;3.13;2.80;;;;;;;1.36;72.40;100633.59;5070116;28;20185;-71
2022/02/13 07:43:29;;;;;;;1.90;1.73;;;;;;;1.36;72.32;100634.41;5070302;28;20674;-71
2022/02/13 07:45:54;;;;;;;4.10;3.17;;;;;;;1.33;72.91;100637.59;5070049;28;20545;-73
2022/02/13 07:48:19;;;;;;;3.97;2.97;;;;;;;1.33;73.05;100631.41;5070382;28;20254;-73
2022/02/13 07:50:45;;;;;;;2.43;2.13;;;;;;;1.38;72.98;100626.91;5070200;28;20179;-73
2022/02/13 07:53:10;;;;;;;1.70;1.60;;;;;;;1.41;72.74;100634.47;5069988;28;20646;-73
2022/02/13 07:55:35;;;;;;;2.67;2.47;;;;;;;1.42;72.66;100635.28;5069983;28;20167;-73
2022/02/13 07:58:01;;;;;;;4.00;3.00;;;;;;;1.39;72.76;100635.78;5069941;28;20206;-73
2022/02/13 08:00:26;;;;;;;3.50;3.07;;;;;;;1.42;73.05;100635.28;5070029;28;20185;-73
2022/02/13 08:02:52;;;;;;;5.10;2.07;;;;;;;1.40;73.19;100640.94;5070149;28;20182;-73
2022/02/13 08:05:18;;;;;;;1.60;1.00;;;;;;;1.51;72.75;100643.78;5070509;28;20162;-73
2022/02/13 08:07:46;;;;;;;1.43;1.33;;;;;;;1.56;72.25;100639.28;5073857;28;20830;-73
2022/02/13 08:10:12;;;;;;;1.53;1.43;;;;;;;1.60;72.10;100634.25;5073546;28;20177;-73
2022/02/13 08:12:37;;;;;;;1.20;1.10;;;;;;;1.62;72.08;100630.22;5073459;28;20175;-73
2022/02/13 08:15:03;;;;;;;3.47;3.27;;;;;;;1.68;71.80;100626.53;5073460;28;20220;-73
2022/02/13 08:17:28;;;;;;;4.10;3.53;;;;;;;1.70;71.78;100623.59;5073182;28;20632;-73
2022/02/13 08:19:53;;;;;;;1.00;0.73;;;;;;;1.75;71.49;100627.19;5073575;28;20210;-73
2022/02/13 08:22:19;;;;;;;2.60;2.37;;;;;;;1.79;71.38;100622.09;5073416;28;20171;-73
2022/02/13 08:24:44;;;;;;;5.20;1.17;;;;;;;1.85;70.80;100609.50;5072956;28;20170;-73
2022/02/13 08:27:09;;;;;;;2.70;2.50;;;;;;;1.92;70.43;100618.25;5073074;28;20182;-72
2022/02/13 08:29:34;;;;;;;2.97;1.87;;;;;;;1.93;70.33;100611.78;5073000;28;20175;-73
2022/02/13 08:32:00;;;;;;;2.20;2.03;;;;;;;2.01;69.41;100611.34;5073065;28;20691;-72
2022/02/13 08:34:25;;;;;;;0.60;0.60;;;;;;;2.06;68.95;100628.41;5073108;28;20177;-73
2022/02/13 08:36:50;;;;;;;2.13;1.73;;;;;;;2.13;69.08;100619.31;5072793;28;20171;-73
2022/02/13 08:39:16;;;;;;;4.43;1.43;;;;;;;2.20;68.44;100620.75;5073071;28;20545;-73
2022/02/13 08:41:42;;;;;;;1.93;1.57;;;;;;;2.23;68.44;100604.06;5073039;28;20170;-73
2022/02/13 08:44:07;;;;;;;1.70;1.30;;;;;;;2.31;68.36;100624.34;5072880;28;20557;-73
2022/02/13 08:46:35;;;;;;;1.60;0.90;;;;;;;2.38;67.79;100628.50;5072905;28;20520;-73
2022/02/13 08:49:01;;;;;;;0.67;0.67;;;;;;;2.45;67.26;100622.91;5072853;28;20178;-73
2022/02/13 08:51:28;;;;;;;0.23;0.23;;;;;;;2.50;67.54;100622.97;5072898;28;20174;-73
2022/02/13 08:53:53;;;;;;;1.07;0.77;;;;;;;2.57;67.20;100620.06;5072811;28;20643;-73
2022/02/13 08:56:18;;;;;;;1.67;1.30;;;;;;;2.62;66.81;100625.53;5072697;28;20178;-73
2022/02/13 08:58:44;;;;;;;0.67;0.67;;;;;;;2.62;66.36;100612.03;5072427;28;20237;-73
2022/02/13 09:01:10;;;;;;;0.80;0.63;;;;;;;2.64;66.66;100615.31;5072156;28;20174;-74
2022/02/13 09:03:35;;;;;;;2.90;1.13;;;;;;;2.71;66.19;100607.00;5072569;28;20163;-73
2022/02/13 09:06:01;;;;;;;2.80;0.67;;;;;;;2.75;66.10;100606.25;5072248;28;20491;-73
2022/02/13 09:08:26;;;;;;;2.77;1.93;;;;;;;2.79;65.66;100591.16;5071217;28;20236;-73
2022/02/13 09:10:51;;;;;;;2.90;1.63;;;;;;;2.86;65.44;100602.53;5072250;28;20201;-72
2022/02/13 09:13:17;;;;;;;1.47;1.23;;;;;;;2.90;64.55;100595.59;5072225;28;20181;-73
2022/02/13 09:15:42;;;;;;;3.13;2.80;;;;;;;2.92;64.74;100587.22;5071831;28;20301;-73
2022/02/13 09:18:12;;;;;;;1.30;1.20;;;;;;;2.92;64.84;100585.34;5071753;28;20708;-73
2022/02/13 09:20:40;;;;;;;0.73;0.47;;;;;;;2.97;64.02;100585.38;5072332;28;20179;-79
2022/02/13 09:23:05;;;;;;;1.60;1.50;;;;;;;3.06;63.73;100580.34;5071999;28;20184;-76
2022/02/13 09:25:30;;;;;;;2.60;2.10;;;;;;;3.17;63.79;100576.63;5071734;28;20190;-79
2022/02/13 09:27:56;;;;;;;3.87;3.00;;;;;;;3.24;63.14;100573.72;5071976;28;20189;-76
2022/02/13 09:30:21;;;;;;;2.90;2.43;;;;;;;3.32;63.88;100567.00;5071468;28;20528;-71
2022/02/13 09:32:46;;;;;;;3.20;2.93;;;;;;;3.43;63.13;100585.72;5071905;28;20177;-72
2022/02/13 09:35:12;;;;;;;3.70;3.17;;;;;;;3.47;63.10;100576.03;5071878;28;20182;-72
2022/02/13 09:37:37;;;;;;;3.57;3.27;;;;;;;3.54;62.62;100583.88;5071868;28;20248;-72
2022/02/13 09:40:04;;;;;;;3.20;2.90;;;;;;;3.63;62.60;100584.22;5070619;28;20178;-73
2022/02/13 09:42:31;;;;;;;4.60;2.30;;;;;;;3.81;61.11;100575.66;5071660;28;20206;-72
2022/02/13 09:44:57;;;;;;;2.73;2.50;;;;;;;3.88;60.90;100576.22;5071433;28;20244;-73
2022/02/13 09:47:24;;;;;;;4.60;3.03;;;;;;;3.81;60.64;100554.84;5071842;28;20166;-74
2022/02/13 09:49:50;;;;;;;0.77;0.77;;;;;;;3.89;60.11;100551.63;5071533;28;20209;-74
2022/02/13 09:52:15;;;;;;;1.30;1.10;;;;;;;3.95;60.09;100554.38;5071419;28;20175;-75
2022/02/13 09:54:41;;;;;;;2.73;2.43;;;;;;;3.95;60.17;100544.38;5071408;28;20479;-71
2022/02/13 10:00:00;;;;;;;0.67;0.67;;;;;;;4.14;60.45;100517.66;5071322;28;20213;-72
2022/02/13 10:02:37;;;;;;;2.63;1.70;;;;;;;4.17;59.86;100519.81;5071222;28;20166;-72
2022/02/13 10:05:05;;;;;;;2.37;2.07;;;;;;;4.26;60.21;100522.81;5071147;28;20673;-72
2022/02/13 10:07:35;;;;;;;1.33;1.23;;;;;;;4.28;59.44;100526.06;5071272;28;20171;-72
2022/02/13 10:10:06;;;;;;;0.77;0.67;;;;;;;4.36;60.50;100515.56;5071081;28;20167;-72
2022/02/13 10:12:38;;;;;;;0.43;0.43;;;;;;;4.50;59.86;100523.97;5071154;28;20253;-72
2022/02/13 10:15:33;;;;;;;5.50;2.47;;;;;;;4.56;59.57;100522.88;5070682;28;20170;-72
2022/02/13 10:18:07;;;;;;;1.40;0.93;;;;;;;4.57;59.11;100531.78;5070408;28;20220;-72
2022/02/13 10:20:34;;;;;;;1.20;1.10;;;;;;;4.60;58.14;100542.06;5070802;28;20169;-71
2022/02/13 10:23:14;;;;;;;1.10;0.90;;;;;;;4.67;59.35;100546.16;5071026;28;20528;-74
2022/02/13 10:25:41;;;;;;;1.77;1.67;;;;;;;4.73;58.64;100538.84;5070727;28;20185;-74
2022/02/13 10:28:17;;;;;;;1.93;1.70;;;;;;;4.77;58.51;100537.22;5069077;28;20665;-74
2022/02/13 10:30:45;;;;;;;1.90;1.60;;;;;;;4.94;58.95;100534.25;5070911;28;20181;-74
2022/02/13 10:33:15;;;;;;;4.17;1.17;;;;;;;4.99;58.71;100542.34;5070785;28;20184;-74
2022/02/13 10:35:40;;;;;;;3.77;2.10;;;;;;;5.03;58.03;100544.25;5070736;28;20181;-74
2022/02/13 10:38:06;;;;;;;1.17;1.13;;;;;;;5.10;58.59;100535.84;5071027;28;20194;-73
2022/02/13 10:40:32;;;;;;;1.63;1.33;;;;;;;5.16;57.11;100523.91;5069368;28;20185;-75
2022/02/13 10:43:09;;;;;;;1.63;1.53;;;;;;;5.36;57.63;100521.19;5070532;28;20188;-71
2022/02/13 10:45:36;;;;;;;1.27;1.17;;;;;;;5.37;56.10;100522.81;5070573;28;20619;-71
2022/02/13 10:48:04;;;;;;;1.53;1.43;;;;;;;5.37;56.42;100520.09;5071188;28;20227;-74
2022/02/13 10:50:35;;;;;;;2.40;2.20;;;;;;;5.40;56.86;100512.50;5070556;28;20186;-74
2022/02/13 10:53:02;;;;;;;1.50;1.40;;;;;;;5.58;56.84;100512.72;5070815;28;20529;-74
2022/02/13 10:55:28;;;;;;;3.27;2.73;;;;;;;5.65;55.97;100513.25;5070422;28;20173;-72
2022/02/13 10:57:54;;;;;;;0.80;0.73;;;;;;;5.71;55.14;100497.75;5070686;28;20171;-71
2022/02/13 11:00:20;;;;;;;3.63;2.73;;;;;;;5.79;55.67;100497.19;5070528;28;20178;-72
2022/02/13 11:02:47;;;;;;;2.90;2.43;;;;;;;5.79;56.04;100497.19;5069249;28;20175;-72
2022/02/13 11:05:14;;;;;;;2.43;2.23;;;;;;;5.89;55.34;100489.00;5070402;28;20201;-74
2022/02/13 11:07:47;;;;;;;2.87;1.93;;;;;;;5.88;54.61;100490.09;5070449;28;20189;-72
2022/02/13 11:10:31;;;;;;;3.33;2.97;;;;;;;5.85;54.88;100489.84;5069170;28;20178;-72
2022/02/13 11:12:57;;;;;;;1.90;1.70;;;;;;;5.97;55.05;100491.16;5071216;28;20495;-69
2022/02/13 11:15:28;;;;;;;1.70;1.17;;;;;;;6.01;55.31;100488.69;5070956;28;20257;-70
2022/02/13 11:17:58;;;;;;;2.43;2.10;;;;;;;6.01;54.26;100485.16;5070199;28;20256;-70
2022/02/13 11:20:23;;;;;;;3.70;2.63;;;;;;;6.00;55.39;100475.41;5069851;28;20170;-70
2022/02/13 11:22:53;;;;;;;3.50;2.90;;;;;;;6.19;56.16;100470.94;5070161;28;20190;-70
2022/02/13 11:25:51;;;;;;;0.93;0.90;;;;;;;6.25;54.53;100462.50;5070109;28;20749;-70
2022/02/13 11:28:23;;;;;;;3.20;2.67;;;;;;;6.19;54.73;100444.63;5069430;28;20174;-70
2022/02/13 11:30:50;;;;;;;2.57;1.83;;;;;;;6.26;54.68;100441.63;5070572;28;20537;-70
2022/02/13 11:33:25;;;;;;;2.77;2.27;;;;;;;6.52;54.29;100453.91;5070054;28;20225;-70
2022/02/13 11:35:57;;;;;;;0.40;0.40;;;;;;;6.52;52.71;100444.94;5069645;28;20170;-70